createdAt,value
2023-05-06T00:02:04.600Z,47.52
2023-05-06T00:04:34.474Z,47.45
2023-05-06T00:07:03.509Z,47.66
2023-05-06T00:09:32.449Z,47.44
2023-05-06T00:12:01.094Z,47.47
2023-05-06T00:14:30.090Z,47.45
2023-05-06T00:16:58.910Z,47.49
2023-05-06T00:19:27.961Z,47.44
2023-05-06T00:21:57.638Z,47.26
2023-05-06T00:24:26.720Z,47.38
2023-05-06T00:26:55.362Z,47.37
2023-05-06T00:29:24.569Z,47.29
2023-05-06T00:31:53.468Z,47.40
2023-05-06T00:34:22.432Z,47.45
2023-05-06T00:36:51.622Z,47.33
2023-05-06T00:39:21.328Z,47.32
2023-05-06T00:41:49.962Z,47.30
2023-05-06T00:44:18.861Z,47.34
2023-05-06T00:46:47.780Z,47.25
2023-05-06T00:49:16.739Z,47.25
2023-05-06T00:51:45.649Z,47.21
2023-05-06T00:54:14.600Z,47.38
2023-05-06T00:56:43.340Z,47.25
2023-05-06T00:59:12.289Z,47.36
2023-05-06T01:01:40.986Z,47.25
2023-05-06T01:04:10.113Z,47.45
2023-05-06T01:06:55.339Z,47.39
2023-05-06T01:09:39.871Z,47.40
2023-05-06T01:12:19.186Z,47.41
2023-05-06T01:15:01.895Z,47.37
2023-05-06T01:17:30.872Z,47.31
2023-05-06T01:20:01.885Z,47.38
2023-05-06T01:22:31.390Z,47.29
2023-05-06T01:25:00.416Z,47.31
2023-05-06T01:27:29.172Z,47.33
2023-05-06T01:29:58.441Z,47.30
2023-05-06T01:32:52.099Z,47.33
2023-05-06T01:35:35.816Z,47.22
2023-05-06T01:38:46.259Z,47.10
2023-05-06T01:41:16.893Z,47.20
2023-05-06T01:43:45.907Z,47.13
2023-05-06T01:46:20.056Z,47.09
2023-05-06T01:48:51.054Z,47.15
2023-05-06T01:51:21.316Z,47.15
2023-05-06T01:53:50.041Z,47.10
2023-05-06T01:56:19.279Z,47.09
2023-05-06T01:58:47.981Z,46.82
2023-05-06T02:01:17.492Z,47.05
2023-05-06T02:03:46.220Z,47.09
2023-05-06T02:06:15.500Z,47.09
2023-05-06T02:08:44.294Z,47.11
2023-05-06T02:11:17.898Z,47.08
2023-05-06T02:13:47.755Z,46.94
2023-05-06T02:16:17.106Z,47.09
2023-05-06T02:18:46.029Z,47.18
2023-05-06T02:21:15.230Z,47.01
2023-05-06T02:23:44.744Z,47.04
2023-05-06T02:26:13.711Z,47.06
2023-05-06T02:28:42.460Z,47.13
2023-05-06T02:31:16.362Z,47.11
2023-05-06T02:33:46.316Z,47.15
2023-05-06T02:36:15.355Z,47.13
2023-05-06T02:38:43.998Z,47.01
2023-05-06T02:41:13.305Z,47.05
2023-05-06T02:43:41.925Z,47.01
2023-05-06T02:46:11.610Z,47.05
2023-05-06T02:48:40.290Z,47.05
2023-05-06T02:51:09.205Z,47.01
2023-05-06T02:53:37.853Z,47.08
2023-05-06T02:56:07.496Z,47.10
2023-05-06T02:58:36.184Z,46.83
2023-05-06T03:01:05.362Z,46.99
2023-05-06T03:03:34.365Z,47.08
2023-05-06T03:06:03.312Z,47.03
2023-05-06T03:08:32.053Z,47.03
2023-05-06T03:11:01.639Z,46.95
2023-05-06T03:13:30.693Z,46.96
2023-05-06T03:16:00.048Z,47.00
2023-05-06T03:18:29.044Z,47.03
2023-05-06T03:20:58.324Z,46.98
2023-05-06T03:23:27.602Z,47.12
2023-05-06T03:25:57.904Z,47.18
2023-05-06T03:28:26.634Z,47.05
2023-05-06T03:30:56.054Z,47.21
2023-05-06T03:33:24.966Z,47.12
2023-05-06T03:35:54.242Z,47.16
2023-05-06T03:38:22.991Z,47.28
2023-05-06T03:40:58.671Z,47.27
2023-05-06T03:43:29.119Z,47.33
2023-05-06T03:46:02.261Z,47.31
2023-05-06T03:48:31.920Z,47.37
2023-05-06T03:51:00.921Z,47.32
2023-05-06T03:53:30.452Z,47.37
2023-05-06T03:55:59.508Z,47.39
2023-05-06T03:58:28.455Z,47.33
2023-05-06T04:00:57.674Z,47.39
2023-05-06T04:03:26.562Z,47.40
2023-05-06T04:05:57.044Z,47.50
2023-05-06T04:08:28.182Z,47.30
2023-05-06T04:10:57.856Z,47.33
2023-05-06T04:13:33.271Z,47.35
2023-05-06T04:16:06.613Z,47.53
2023-05-06T04:18:40.150Z,47.55
2023-05-06T04:21:13.619Z,47.63
2023-05-06T04:23:45.120Z,47.63
2023-05-06T04:26:18.390Z,47.80
2023-05-06T04:28:48.552Z,47.70
2023-05-06T04:31:19.059Z,47.77
2023-05-06T04:33:53.673Z,47.73
2023-05-06T04:36:25.958Z,47.91
2023-05-06T04:39:13.490Z,47.66
2023-05-06T04:41:44.797Z,47.65
2023-05-06T04:44:17.731Z,47.63
2023-05-06T04:46:48.873Z,47.66
2023-05-06T04:49:18.668Z,47.66
2023-05-06T04:51:47.792Z,47.59
2023-05-06T04:54:17.471Z,47.64
2023-05-06T04:56:46.571Z,47.70
2023-05-06T04:59:18.259Z,47.58
2023-05-06T05:01:47.864Z,47.53
2023-05-06T05:04:17.787Z,47.68
2023-05-06T05:06:47.103Z,47.66
2023-05-06T05:09:16.355Z,47.73
2023-05-06T05:11:47.347Z,47.65
2023-05-06T05:14:16.284Z,47.59
2023-05-06T05:16:46.319Z,47.73
2023-05-06T05:19:16.132Z,47.66
2023-05-06T05:21:45.942Z,47.70
2023-05-06T05:24:16.293Z,47.77
2023-05-06T05:26:45.583Z,47.64
2023-05-06T05:29:14.539Z,47.64
2023-05-06T05:31:44.923Z,47.62
2023-05-06T05:34:14.716Z,47.69
2023-05-06T05:36:45.062Z,47.69
2023-05-06T05:39:16.448Z,47.77
2023-05-06T05:41:48.403Z,47.74
2023-05-06T05:44:17.966Z,47.88
2023-05-06T05:46:47.255Z,48.00
2023-05-06T05:49:18.664Z,47.94
2023-05-06T05:51:47.965Z,48.08
2023-05-06T05:54:19.771Z,48.10
2023-05-06T05:56:49.245Z,48.09
2023-05-06T05:59:18.006Z,48.07
2023-05-06T06:01:49.763Z,48.21
2023-05-06T06:04:18.792Z,48.07
2023-05-06T06:06:47.948Z,47.98
2023-05-06T06:09:18.000Z,47.98
2023-05-06T06:11:47.598Z,47.83
2023-05-06T06:14:17.482Z,47.97
2023-05-06T06:16:48.493Z,47.65
2023-05-06T06:19:17.319Z,47.62
2023-05-06T06:21:46.826Z,47.38
2023-05-06T06:24:16.220Z,47.46
2023-05-06T06:26:45.451Z,47.48
2023-05-06T06:29:14.603Z,47.74
2023-05-06T06:31:43.848Z,48.11
2023-05-06T06:34:13.202Z,48.15
2023-05-06T06:36:45.496Z,48.53
2023-05-06T06:39:14.413Z,48.50
2023-05-06T06:41:43.774Z,48.63
2023-05-06T06:44:12.312Z,48.86
2023-05-06T06:46:41.893Z,48.66
2023-05-06T06:49:10.762Z,48.52
2023-05-06T06:51:39.905Z,48.38
2023-05-06T06:54:08.709Z,48.72
2023-05-06T06:56:37.973Z,48.84
2023-05-06T06:59:07.862Z,48.80
2023-05-06T07:01:37.094Z,48.79
2023-05-06T07:04:07.223Z,48.50
2023-05-06T07:06:36.900Z,48.32
2023-05-06T07:09:05.873Z,49.54
2023-05-06T07:11:35.289Z,49.50
2023-05-06T07:14:04.065Z,49.64
2023-05-06T07:16:32.958Z,50.46
2023-05-06T07:19:01.907Z,51.46
2023-05-06T07:21:33.598Z,50.95
2023-05-06T07:24:02.229Z,51.45
2023-05-06T07:26:31.083Z,52.01
2023-05-06T07:28:59.606Z,52.44
2023-05-06T07:31:28.751Z,51.75
2023-05-06T07:33:58.676Z,50.97
2023-05-06T07:36:27.939Z,51.34
2023-05-06T07:38:56.439Z,51.48
2023-05-06T07:41:25.696Z,50.92
2023-05-06T07:43:54.260Z,50.63
2023-05-06T07:46:23.535Z,50.76
2023-05-06T07:48:52.215Z,51.09
2023-05-06T07:51:22.007Z,50.71
2023-05-06T07:53:50.741Z,50.79
2023-05-06T07:56:19.940Z,50.60
2023-05-06T07:58:49.621Z,50.39
2023-05-06T08:01:19.054Z,49.81
2023-05-06T08:03:47.970Z,49.93
2023-05-06T08:06:17.138Z,50.43
2023-05-06T08:08:47.416Z,50.04
2023-05-06T08:11:18.818Z,49.82
2023-05-06T08:13:48.085Z,50.54
2023-05-06T08:16:17.268Z,52.41
2023-05-06T08:18:46.020Z,52.27
2023-05-06T08:21:16.391Z,50.70
2023-05-06T08:23:45.092Z,50.41
2023-05-06T08:26:14.214Z,49.69
2023-05-06T08:28:42.996Z,49.50
2023-05-06T08:31:11.821Z,49.13
2023-05-06T08:33:40.350Z,48.86
2023-05-06T08:36:09.571Z,48.67
2023-05-06T08:38:38.271Z,48.66
2023-05-06T08:41:11.261Z,48.35
2023-05-06T08:43:42.826Z,49.70
2023-05-06T08:46:11.927Z,49.86
2023-05-06T08:48:41.338Z,49.59
2023-05-06T08:51:10.791Z,49.29
2023-05-06T08:53:39.999Z,49.06
2023-05-06T08:56:09.921Z,48.64
2023-05-06T08:58:38.865Z,48.38
2023-05-06T09:01:08.218Z,48.11
2023-05-06T09:03:36.999Z,47.45
2023-05-06T09:06:05.972Z,48.08
2023-05-06T09:08:34.483Z,48.48
2023-05-06T09:11:03.330Z,48.00
2023-05-06T09:13:32.237Z,47.87
2023-05-06T09:16:01.601Z,47.74
2023-05-06T09:18:30.273Z,48.04
2023-05-06T09:21:00.771Z,47.44
2023-05-06T09:23:29.873Z,47.42
2023-05-06T09:25:58.992Z,47.38
2023-05-06T09:28:27.723Z,47.05
2023-05-06T09:30:56.939Z,46.93
2023-05-06T09:33:25.681Z,47.19
2023-05-06T09:35:54.941Z,47.37
2023-05-06T09:38:23.726Z,47.80
2023-05-06T09:40:52.736Z,47.44
2023-05-06T09:43:21.491Z,47.26
2023-05-06T09:45:51.160Z,46.52
2023-05-06T09:48:19.879Z,46.71
2023-05-06T09:50:50.334Z,47.17
2023-05-06T09:53:19.937Z,47.63
2023-05-06T09:55:49.446Z,47.35
2023-05-06T09:58:18.326Z,47.41
2023-05-06T10:00:47.654Z,47.80
2023-05-06T10:03:16.971Z,48.12
2023-05-06T10:05:46.388Z,47.70
2023-05-06T10:08:18.757Z,48.33
2023-05-06T10:10:48.015Z,48.55
2023-05-06T10:13:17.321Z,48.30
2023-05-06T10:15:48.362Z,47.81
2023-05-06T10:18:21.517Z,47.34
2023-05-06T10:20:53.859Z,47.21
2023-05-06T10:23:28.352Z,46.70
2023-05-06T10:25:58.180Z,46.61
2023-05-06T10:28:30.376Z,46.75
2023-05-06T10:31:00.498Z,46.94
2023-05-06T10:33:29.293Z,46.46
2023-05-06T10:36:11.262Z,46.10
2023-05-06T10:38:49.418Z,46.26
2023-05-06T10:41:18.761Z,46.47
2023-05-06T10:43:47.974Z,46.17
2023-05-06T10:46:17.796Z,45.97
2023-05-06T10:49:05.024Z,45.98
2023-05-06T10:51:35.136Z,46.00
2023-05-06T10:54:08.187Z,45.73
2023-05-06T10:56:41.218Z,45.92
2023-05-06T10:59:13.648Z,45.79
2023-05-06T11:01:43.924Z,46.12
2023-05-06T11:04:14.152Z,45.96
2023-05-06T11:06:46.477Z,46.12
2023-05-06T11:09:19.963Z,45.89
2023-05-06T11:12:09.204Z,46.08
2023-05-06T11:14:39.817Z,45.74
2023-05-06T11:17:09.978Z,45.87
2023-05-06T11:19:40.271Z,45.46
2023-05-06T11:22:09.401Z,45.46
2023-05-06T11:24:44.596Z,45.63
2023-05-06T11:27:17.301Z,45.66
2023-05-06T11:29:45.907Z,45.06
2023-05-06T11:32:25.336Z,44.44
2023-05-06T11:34:57.257Z,43.75
2023-05-06T11:37:27.969Z,44.33
2023-05-06T11:39:56.592Z,44.24
2023-05-06T11:42:29.314Z,44.39
2023-05-06T11:45:01.538Z,44.42
2023-05-06T11:47:30.615Z,44.73
2023-05-06T11:50:00.195Z,45.34
2023-05-06T11:52:29.117Z,44.73
2023-05-06T11:54:57.680Z,44.67
2023-05-06T11:57:26.705Z,44.93
2023-05-06T11:59:55.555Z,44.55
2023-05-06T12:02:24.552Z,44.21
2023-05-06T12:04:53.639Z,44.22
2023-05-06T12:07:22.758Z,44.51
2023-05-06T12:09:51.247Z,44.17
2023-05-06T12:12:22.812Z,44.15
2023-05-06T12:14:51.364Z,43.93
2023-05-06T12:17:20.311Z,43.97
2023-05-06T12:19:49.328Z,43.54
2023-05-06T12:22:22.760Z,43.69
2023-05-06T12:24:51.085Z,43.62
2023-05-06T12:27:49.276Z,43.57
2023-05-06T12:30:30.420Z,43.60
2023-05-06T12:33:02.422Z,43.39
2023-05-06T12:35:32.150Z,43.46
2023-05-06T12:38:11.336Z,43.57
2023-05-06T12:40:40.200Z,44.12
2023-05-06T12:43:09.750Z,44.09
2023-05-06T12:45:41.627Z,43.55
2023-05-06T12:48:12.488Z,43.60
2023-05-06T12:50:43.116Z,44.10
2023-05-06T12:53:16.589Z,43.13
2023-05-06T12:55:46.461Z,43.74
2023-05-06T12:58:21.262Z,43.46
2023-05-06T13:00:49.804Z,43.61
2023-05-06T13:03:19.477Z,43.46
2023-05-06T13:05:50.535Z,43.28
2023-05-06T13:08:19.353Z,42.96
2023-05-06T13:10:47.799Z,42.91
2023-05-06T13:13:17.671Z,43.02
2023-05-06T13:15:46.190Z,43.04
2023-05-06T13:18:14.960Z,43.21
2023-05-06T13:20:44.347Z,43.24
2023-05-06T13:23:13.010Z,43.18
2023-05-06T13:25:55.956Z,42.66
2023-05-06T13:28:32.901Z,43.00
2023-05-06T13:31:01.276Z,43.04
2023-05-06T13:33:31.471Z,43.18
2023-05-06T13:36:01.974Z,43.44
2023-05-06T13:38:33.041Z,43.47
2023-05-06T13:41:01.397Z,43.95
2023-05-06T13:43:31.875Z,43.34
2023-05-06T13:46:00.323Z,43.52
2023-05-06T13:48:29.021Z,43.41
2023-05-06T13:50:57.443Z,43.84
2023-05-06T13:53:26.648Z,44.01
2023-05-06T13:55:54.965Z,44.46
2023-05-06T13:58:23.644Z,44.41
2023-05-06T14:00:52.046Z,44.18
2023-05-06T14:03:22.545Z,44.13
2023-05-06T14:05:51.457Z,44.57
2023-05-06T14:08:20.539Z,44.30
2023-05-06T14:10:49.250Z,44.26
2023-05-06T14:13:18.375Z,44.12
2023-05-06T14:15:47.086Z,44.29
2023-05-06T14:18:16.221Z,43.73
2023-05-06T14:20:44.869Z,43.77
2023-05-06T14:23:13.528Z,43.78
2023-05-06T14:25:41.883Z,43.92
2023-05-06T14:28:14.768Z,44.12
2023-05-06T14:30:43.301Z,44.41
2023-05-06T14:33:13.096Z,44.32
2023-05-06T14:35:46.333Z,44.37
2023-05-06T14:38:15.834Z,44.47
2023-05-06T14:40:44.217Z,44.24
2023-05-06T14:43:14.151Z,44.30
2023-05-06T14:45:42.693Z,44.48
2023-05-06T14:48:11.531Z,44.69
2023-05-06T14:50:40.287Z,44.39
2023-05-06T14:53:09.067Z,44.16
2023-05-06T14:55:37.866Z,44.44
2023-05-06T14:58:06.575Z,44.60
2023-05-06T15:00:35.228Z,44.82
2023-05-06T15:03:04.721Z,44.96
2023-05-06T15:05:33.413Z,45.00
2023-05-06T15:08:02.415Z,44.64
2023-05-06T15:10:30.935Z,44.23
2023-05-06T15:12:59.853Z,44.18
2023-05-06T15:15:28.478Z,43.94
2023-05-06T15:17:57.396Z,44.52
2023-05-06T15:20:26.360Z,44.52
2023-05-06T15:22:55.082Z,44.68
2023-05-06T15:25:34.428Z,45.00
2023-05-06T15:28:05.211Z,44.85
2023-05-06T15:30:33.595Z,44.69
2023-05-06T15:33:03.469Z,44.82
2023-05-06T15:35:32.340Z,44.81
2023-05-06T15:38:03.649Z,44.96
2023-05-06T15:40:32.309Z,44.78
2023-05-06T15:43:01.233Z,44.57
2023-05-06T15:45:29.548Z,45.04
2023-05-06T15:47:58.295Z,44.95
2023-05-06T15:50:33.498Z,44.49
2023-05-06T15:53:03.300Z,44.66
2023-05-06T15:55:35.240Z,44.50
2023-05-06T15:58:12.398Z,44.81
2023-05-06T16:00:40.892Z,44.61
2023-05-06T16:03:12.009Z,44.62
2023-05-06T16:05:41.388Z,44.25
2023-05-06T16:08:10.081Z,43.77
2023-05-06T16:10:39.372Z,44.03
2023-05-06T16:13:08.129Z,44.12
2023-05-06T16:15:36.672Z,44.39
2023-05-06T16:18:05.486Z,44.11
2023-05-06T16:20:34.548Z,44.31
2023-05-06T16:23:03.418Z,44.30
2023-05-06T16:25:31.811Z,44.15
2023-05-06T16:28:01.523Z,44.32
2023-05-06T16:30:29.862Z,44.18
2023-05-06T16:32:58.834Z,44.38
2023-05-06T16:35:27.560Z,44.32
2023-05-06T16:37:56.242Z,44.56
2023-05-06T16:40:24.585Z,44.48
2023-05-06T16:42:54.134Z,44.86
2023-05-06T16:45:22.566Z,44.85
2023-05-06T16:47:51.285Z,44.52
2023-05-06T16:50:19.704Z,44.95
2023-05-06T16:52:48.279Z,44.79
2023-05-06T16:55:16.957Z,44.78
2023-05-06T16:57:45.549Z,45.18
2023-05-06T17:00:15.945Z,45.30
2023-05-06T17:02:44.715Z,45.63
2023-05-06T17:05:13.093Z,45.39
2023-05-06T17:07:41.715Z,45.41
2023-05-06T17:10:10.892Z,45.30
2023-05-06T17:12:39.887Z,45.51
2023-05-06T17:15:09.156Z,45.58
2023-05-06T17:17:39.738Z,45.72
2023-05-06T17:20:09.275Z,45.73
2023-05-06T17:22:38.078Z,45.79
2023-05-06T17:25:07.213Z,46.05
2023-05-06T17:27:35.960Z,46.19
2023-05-06T17:30:04.814Z,46.33
2023-05-06T17:32:33.943Z,46.05
2023-05-06T17:35:02.499Z,45.99
2023-05-06T17:37:31.707Z,46.10
2023-05-06T17:39:59.979Z,46.24
2023-05-06T17:42:28.604Z,46.45
2023-05-06T17:44:56.904Z,46.96
2023-05-06T17:47:27.708Z,47.42
2023-05-06T17:49:56.019Z,47.28
2023-05-06T17:52:26.550Z,47.29
2023-05-06T17:55:10.709Z,47.32
2023-05-06T17:57:40.352Z,47.33
2023-05-06T18:00:09.486Z,47.27
2023-05-06T18:02:41.558Z,47.31
2023-05-06T18:05:10.238Z,47.39
2023-05-06T18:07:39.200Z,47.33
2023-05-06T18:10:08.729Z,47.43
2023-05-06T18:12:37.551Z,47.53
2023-05-06T18:15:07.121Z,47.41
2023-05-06T18:17:35.738Z,47.53
2023-05-06T18:20:06.654Z,47.64
2023-05-06T18:22:36.451Z,47.62
2023-05-06T18:25:06.306Z,47.77
2023-05-06T18:27:35.133Z,47.68
2023-05-06T18:30:07.357Z,47.75
2023-05-06T18:32:37.208Z,47.71
2023-05-06T18:35:06.712Z,47.91
2023-05-06T18:37:35.679Z,47.93
2023-05-06T18:40:04.712Z,47.79
2023-05-06T18:42:34.025Z,47.80
2023-05-06T18:45:07.054Z,47.83
2023-05-06T18:47:37.728Z,47.91
2023-05-06T18:50:08.540Z,48.14
2023-05-06T18:52:37.779Z,47.98
2023-05-06T18:55:07.590Z,48.07
2023-05-06T18:57:37.430Z,48.11
2023-05-06T19:00:07.412Z,47.95
2023-05-06T19:02:38.024Z,48.00
2023-05-06T19:05:08.172Z,48.00
2023-05-06T19:07:37.070Z,48.12
2023-05-06T19:10:05.967Z,48.01
2023-05-06T19:12:37.588Z,48.10
2023-05-06T19:15:06.872Z,48.19
2023-05-06T19:17:36.553Z,48.24
2023-05-06T19:20:05.650Z,47.96
2023-05-06T19:22:35.666Z,48.23
2023-05-06T19:25:04.240Z,48.46
2023-05-06T19:27:33.067Z,48.48
2023-05-06T19:30:02.362Z,48.52
2023-05-06T19:32:33.024Z,48.58
2023-05-06T19:35:08.393Z,48.86
2023-05-06T19:37:38.555Z,49.17
2023-05-06T19:40:07.882Z,49.70
2023-05-06T19:42:36.497Z,49.58
2023-05-06T19:45:15.400Z,49.78
2023-05-06T19:47:45.403Z,50.03
2023-05-06T19:50:13.632Z,49.56
2023-05-06T19:52:42.237Z,50.21
2023-05-06T19:55:11.216Z,50.29
2023-05-06T19:57:41.184Z,50.55
2023-05-06T20:00:11.846Z,50.49
2023-05-06T20:02:40.890Z,50.66
2023-05-06T20:05:10.676Z,50.73
2023-05-06T20:07:41.452Z,51.12
2023-05-06T20:10:10.246Z,51.25
2023-05-06T20:12:38.873Z,50.97
2023-05-06T20:15:09.264Z,50.83
2023-05-06T20:17:38.901Z,50.38
2023-05-06T20:20:10.075Z,49.95
2023-05-06T20:22:39.926Z,49.68
2023-05-06T20:25:14.583Z,49.55
2023-05-06T20:27:44.017Z,49.28
2023-05-06T20:30:12.526Z,49.42
2023-05-06T20:32:41.358Z,49.44
2023-05-06T20:35:10.190Z,49.36
2023-05-06T20:37:39.314Z,49.38
2023-05-06T20:40:08.662Z,49.43
2023-05-06T20:42:37.448Z,49.33
2023-05-06T20:50:03.814Z,49.59
2023-05-06T20:52:34.253Z,49.48
2023-05-06T20:55:03.393Z,49.87
2023-05-06T20:57:32.614Z,49.73
2023-05-06T21:00:00.903Z,49.89
2023-05-06T21:02:32.996Z,49.67
2023-05-06T21:05:02.771Z,49.74
2023-05-06T21:07:32.800Z,49.79
2023-05-06T21:10:03.484Z,49.70
2023-05-06T21:12:33.956Z,49.91
2023-05-06T21:15:02.296Z,49.98
2023-05-06T21:17:30.772Z,49.78
2023-05-06T21:19:59.395Z,50.10
2023-05-06T21:22:27.618Z,50.31
2023-05-06T21:24:56.202Z,50.21
2023-05-06T21:27:24.549Z,49.88
2023-05-06T21:29:54.362Z,49.59
2023-05-06T21:32:22.888Z,49.47
2023-05-06T21:34:51.576Z,49.54
2023-05-06T21:37:19.876Z,49.63
2023-05-06T21:39:48.540Z,49.73
2023-05-06T21:42:16.889Z,50.01
2023-05-06T21:44:45.447Z,49.79
2023-05-06T21:47:14.248Z,49.52
2023-05-06T21:49:42.867Z,49.46
2023-05-06T21:52:11.251Z,49.31
2023-05-06T21:54:39.816Z,49.19
2023-05-06T21:57:09.229Z,49.01
2023-05-06T21:59:37.950Z,48.89
2023-05-06T22:02:06.306Z,48.42
2023-05-06T22:04:35.085Z,48.31
2023-05-06T22:07:03.321Z,48.07
2023-05-06T22:09:31.362Z,47.91
2023-05-06T22:11:59.999Z,47.74
2023-05-06T22:14:37.402Z,47.68
2023-05-06T22:17:10.725Z,47.74
2023-05-06T22:19:41.879Z,47.81
2023-05-06T22:22:10.893Z,47.47
2023-05-06T22:24:40.302Z,47.49
2023-05-06T22:27:08.933Z,47.54
2023-05-06T22:29:37.685Z,47.65
2023-05-06T22:32:06.964Z,47.98
2023-05-06T22:34:35.786Z,47.82
2023-05-06T22:37:14.088Z,48.00
2023-05-06T22:39:42.413Z,48.17
2023-05-06T22:42:10.979Z,47.88
2023-05-06T22:44:39.284Z,47.95
2023-05-06T22:47:07.890Z,47.80
2023-05-06T22:49:36.545Z,47.60
2023-05-06T22:52:05.835Z,47.71
2023-05-06T22:54:34.149Z,47.62
2023-05-06T22:57:04.127Z,47.44
2023-05-06T22:59:32.447Z,47.02
2023-05-06T23:02:01.169Z,46.67
2023-05-06T23:04:29.502Z,46.38
2023-05-06T23:06:58.219Z,46.10
2023-05-06T23:09:26.565Z,46.43
2023-05-06T23:11:55.203Z,46.35
2023-05-06T23:14:23.483Z,46.46
2023-05-06T23:16:53.229Z,46.71
2023-05-06T23:19:21.980Z,46.99
2023-05-06T23:21:50.639Z,47.20
2023-05-06T23:24:18.943Z,47.10
2023-05-06T23:26:48.713Z,47.18
2023-05-06T23:29:17.582Z,47.59
2023-05-06T23:31:46.227Z,47.57
2023-05-06T23:34:14.529Z,47.54
2023-05-06T23:36:43.079Z,47.53
2023-05-06T23:39:12.800Z,47.85
2023-05-06T23:41:41.501Z,48.09
2023-05-06T23:44:09.871Z,47.71
2023-05-06T23:46:39.295Z,47.49
2023-05-06T23:49:07.535Z,47.22
2023-05-06T23:51:36.134Z,47.03
2023-05-06T23:54:04.737Z,46.70
2023-05-06T23:56:33.687Z,46.79
2023-05-06T23:59:01.981Z,46.80
